createdAt,value
2018-05-01T00:01:19.897Z,77.70
2018-05-01T00:03:45.901Z,77.90
2018-05-01T00:06:11.901Z,78.10
2018-05-01T00:08:37.944Z,78.10
2018-05-01T00:11:03.924Z,78.00
2018-05-01T00:13:29.912Z,78.10
2018-05-01T00:15:55.916Z,78.20
2018-05-01T00:18:21.916Z,77.20
2018-05-01T00:20:47.910Z,78.00
2018-05-01T00:23:14.649Z,78.80
2018-05-01T00:25:41.410Z,78.30
2018-05-01T00:28:07.401Z,78.30
2018-05-01T00:30:34.125Z,77.90
2018-05-01T00:33:00.104Z,77.80
2018-05-01T00:35:26.089Z,77.70
2018-05-01T00:37:52.098Z,77.00
2018-05-01T00:40:18.123Z,76.60
2018-05-01T00:42:44.101Z,77.00
2018-05-01T00:45:10.100Z,76.80
2018-05-01T00:47:36.808Z,75.90
2018-05-01T00:50:02.801Z,75.90
2018-05-01T00:52:34.969Z,76.50
2018-05-01T00:55:00.962Z,75.40
2018-05-01T00:57:26.966Z,73.40
2018-05-01T00:59:53.699Z,72.10
2018-05-01T01:02:20.421Z,71.70
2018-05-01T01:04:46.445Z,71.00
2018-05-01T01:07:12.594Z,70.90
2018-05-01T01:09:39.342Z,69.70
2018-05-01T01:12:06.077Z,69.70
2018-05-01T01:14:32.826Z,71.00
2018-05-01T01:16:58.810Z,71.00
2018-05-01T01:19:24.817Z,68.80
2018-05-01T01:21:50.805Z,68.40
2018-05-01T01:24:16.809Z,68.00
2018-05-01T01:26:43.550Z,68.90
2018-05-01T01:29:10.285Z,68.70
2018-05-01T01:31:37.013Z,68.60
2018-05-01T01:34:03.150Z,68.60
2018-05-01T01:36:29.181Z,68.20
2018-05-01T01:38:55.152Z,68.70
2018-05-01T01:41:21.121Z,69.10
2018-05-01T01:43:47.837Z,69.80
2018-05-01T01:46:13.768Z,69.80
2018-05-01T01:48:39.693Z,69.80
2018-05-01T01:51:05.653Z,69.80
2018-05-01T01:53:31.581Z,69.80
2018-05-01T01:55:57.557Z,69.50
2018-05-01T01:58:23.493Z,69.50
2018-05-01T02:00:50.186Z,69.90
2018-05-01T02:03:16.113Z,69.80
2018-05-01T02:05:42.077Z,69.40
2018-05-01T02:08:08.748Z,69.80
2018-05-01T02:10:34.705Z,69.80
2018-05-01T02:13:00.640Z,69.30
2018-05-01T02:15:26.585Z,69.80
2018-05-01T02:17:53.425Z,70.20
2018-05-01T02:20:20.100Z,69.80
2018-05-01T02:22:46.184Z,69.80
2018-05-01T02:25:12.873Z,69.50
2018-05-01T02:27:38.809Z,69.50
2018-05-01T02:30:04.773Z,69.50
2018-05-01T02:32:31.462Z,69.30
2018-05-01T02:34:57.405Z,69.20
2018-05-01T02:37:23.350Z,69.20
2018-05-01T02:39:50.017Z,69.30
2018-05-01T02:42:15.956Z,69.10
2018-05-01T02:44:41.921Z,69.30
2018-05-01T02:47:07.868Z,67.70
2018-05-01T02:49:34.049Z,68.70
2018-05-01T02:52:00.000Z,68.60
2018-05-01T02:54:26.680Z,67.80
2018-05-01T02:56:52.638Z,67.70
2018-05-01T02:59:18.577Z,67.20
2018-05-01T03:01:45.274Z,68.10
2018-05-01T03:04:11.186Z,67.50
2018-05-01T03:06:37.133Z,67.40
2018-05-01T03:09:03.075Z,66.80
2018-05-01T03:11:29.022Z,67.10
2018-05-01T03:13:54.942Z,67.10
2018-05-01T03:16:20.921Z,66.00
2018-05-01T03:18:46.842Z,67.70
2018-05-01T03:21:12.794Z,68.30
2018-05-01T03:23:38.740Z,69.20
2018-05-01T03:26:05.401Z,69.10
2018-05-01T03:28:31.353Z,69.00
2018-05-01T03:30:57.297Z,69.00
2018-05-01T03:33:23.272Z,68.90
2018-05-01T03:35:49.241Z,68.90
2018-05-01T03:38:15.185Z,68.90
2018-05-01T03:40:41.859Z,69.30
2018-05-01T03:43:07.825Z,69.30
2018-05-01T03:45:33.765Z,69.30
2018-05-01T03:48:00.451Z,69.80
2018-05-01T03:50:26.385Z,69.80
2018-05-01T03:52:52.329Z,69.30
2018-05-01T03:55:18.265Z,69.90
2018-05-01T03:57:44.989Z,69.80
2018-05-01T04:00:12.401Z,70.60
2018-05-01T04:02:38.465Z,70.50
2018-05-01T04:05:04.409Z,69.30
2018-05-01T04:07:31.081Z,68.90
2018-05-01T04:09:57.034Z,68.80
2018-05-01T04:12:22.973Z,68.90
2018-05-01T04:14:48.917Z,67.20
2018-05-01T04:17:22.553Z,66.00
2018-05-01T04:19:48.481Z,66.10
2018-05-01T04:22:14.416Z,67.00
2018-05-01T04:24:40.369Z,65.90
2018-05-01T04:27:06.313Z,64.10
2018-05-01T04:29:32.984Z,64.90
2018-05-01T04:31:58.921Z,64.80
2018-05-01T04:34:24.872Z,64.00
2018-05-01T04:36:51.546Z,63.60
2018-05-01T04:39:17.485Z,64.10
2018-05-01T04:41:43.429Z,64.80
2018-05-01T04:44:09.400Z,62.80
2018-05-01T04:46:35.337Z,63.60
2018-05-01T04:49:01.325Z,63.70
2018-05-01T04:51:28.002Z,63.00
2018-05-01T04:53:53.928Z,62.90
2018-05-01T04:56:19.880Z,63.70
2018-05-01T04:58:45.817Z,64.00
2018-05-01T05:01:11.765Z,63.90
2018-05-01T05:03:38.438Z,63.30
2018-05-01T05:06:04.386Z,63.30
2018-05-01T05:08:30.313Z,63.50
2018-05-01T05:10:56.252Z,62.70
2018-05-01T05:13:22.176Z,62.80
2018-05-01T05:15:48.211Z,63.30
2018-05-01T05:18:14.872Z,65.40
2018-05-01T05:20:40.809Z,65.50
2018-05-01T05:23:06.736Z,65.90
2018-05-01T05:25:32.681Z,66.30
2018-05-01T05:27:58.622Z,65.90
2018-05-01T05:30:24.701Z,65.40
2018-05-01T05:32:50.641Z,66.20
2018-05-01T05:35:16.593Z,66.60
2018-05-01T05:37:42.529Z,66.60
2018-05-01T05:40:09.201Z,67.60
2018-05-01T05:42:35.149Z,67.60
2018-05-01T05:45:01.077Z,67.50
2018-05-01T05:47:27.021Z,67.60
2018-05-01T05:49:52.949Z,68.60
2018-05-01T05:52:19.616Z,69.40
2018-05-01T05:54:45.548Z,69.40
2018-05-01T05:57:11.524Z,68.90
2018-05-01T05:59:37.459Z,69.00
2018-05-01T06:02:04.138Z,69.00
2018-05-01T06:04:30.097Z,69.00
2018-05-01T06:06:56.049Z,69.30
2018-05-01T06:09:22.025Z,70.70
2018-05-01T06:11:47.987Z,71.30
2018-05-01T06:14:14.661Z,73.90
2018-05-01T06:16:40.655Z,73.90
2018-05-01T06:19:08.118Z,71.20
2018-05-01T06:21:34.241Z,71.10
2018-05-01T06:24:00.174Z,71.60
2018-05-01T06:26:26.111Z,72.10
2018-05-01T06:28:52.033Z,71.60
2018-05-01T06:31:18.218Z,72.80
2018-05-01T06:33:44.165Z,74.00
2018-05-01T06:36:10.104Z,74.40
2018-05-01T06:38:36.049Z,74.10
2018-05-01T06:41:02.017Z,75.90
2018-05-01T06:43:28.696Z,79.30
2018-05-01T06:45:54.637Z,79.30
2018-05-01T06:48:20.567Z,81.60
2018-05-01T06:50:46.567Z,82.70
2018-05-01T06:53:13.219Z,82.80
2018-05-01T06:55:40.089Z,83.50
2018-05-01T06:58:06.025Z,83.50
2018-05-01T07:00:31.933Z,84.00
2018-05-01T07:02:57.877Z,84.40
2018-05-01T07:05:24.542Z,85.80
2018-05-01T07:07:50.798Z,85.90
2018-05-01T07:10:16.958Z,83.50
2018-05-01T07:12:42.873Z,82.40
2018-05-01T07:15:08.805Z,84.60
2018-05-01T07:17:35.501Z,84.30
2018-05-01T07:20:01.445Z,84.30
2018-05-01T07:22:27.393Z,85.10
2018-05-01T07:24:54.067Z,86.90
2018-05-01T07:27:20.151Z,86.90
2018-05-01T07:29:46.038Z,88.70
2018-05-01T07:32:11.994Z,89.30
2018-05-01T07:34:38.706Z,88.90
2018-05-01T07:37:04.661Z,89.50
2018-05-01T07:39:30.647Z,88.70
2018-05-01T07:41:56.593Z,89.80
2018-05-01T07:44:22.530Z,89.30
2018-05-01T07:46:49.208Z,87.40
2018-05-01T07:49:15.144Z,87.50
2018-05-01T07:51:41.077Z,88.90
2018-05-01T07:54:07.017Z,89.80
2018-05-01T07:56:32.989Z,90.20
2018-05-01T07:58:58.918Z,89.80
2018-05-01T08:01:24.898Z,88.80
2018-05-01T08:03:51.558Z,91.30
2018-05-01T08:06:18.261Z,91.70
2018-05-01T08:08:44.421Z,91.70
2018-05-01T08:11:10.385Z,91.10
2018-05-01T08:13:36.361Z,91.00
2018-05-01T08:16:03.025Z,89.00
2018-05-01T08:18:28.969Z,89.00
2018-05-01T08:20:54.884Z,90.50
2018-05-01T08:23:20.869Z,91.50
2018-05-01T08:25:47.652Z,92.50
2018-05-01T08:28:13.775Z,92.50
2018-05-01T08:30:39.871Z,92.20
2018-05-01T08:33:05.904Z,91.80
2018-05-01T08:35:31.877Z,92.90
2018-05-01T08:37:57.829Z,92.50
2018-05-01T08:40:23.829Z,92.60
2018-05-01T08:42:50.577Z,93.40
2018-05-01T08:45:17.407Z,93.80
2018-05-01T08:47:44.384Z,94.10
2018-05-01T08:50:10.434Z,94.10
2018-05-01T08:52:36.405Z,94.50
2018-05-01T08:55:03.113Z,94.10
2018-05-01T08:57:29.114Z,94.10
2018-05-01T08:59:56.163Z,94.30
2018-05-01T09:02:22.355Z,93.90
2018-05-01T09:04:49.401Z,94.10
2018-05-01T09:07:16.191Z,94.40
2018-05-01T09:09:42.230Z,94.50
2018-05-01T09:12:08.522Z,94.50
2018-05-01T09:14:34.794Z,94.60
2018-05-01T09:17:01.557Z,94.60
2018-05-01T09:19:27.484Z,94.60
2018-05-01T09:21:53.428Z,94.40
2018-05-01T09:24:19.390Z,94.60
2018-05-01T09:26:45.349Z,95.50
2018-05-01T09:29:11.301Z,95.00
2018-05-01T09:31:37.953Z,95.40
2018-05-01T09:34:03.976Z,95.30
2018-05-01T09:36:30.169Z,95.00
2018-05-01T09:38:56.853Z,95.90
2018-05-01T09:41:22.792Z,95.90
2018-05-01T09:43:48.752Z,96.00
2018-05-01T09:46:15.595Z,96.40
2018-05-01T09:48:42.282Z,95.50
2018-05-01T09:51:08.245Z,95.50
2018-05-01T09:53:35.034Z,95.70
2018-05-01T09:56:01.117Z,95.60
2018-05-01T09:58:27.875Z,96.10
2018-05-01T10:00:53.889Z,95.90
2018-05-01T10:03:20.649Z,94.80
2018-05-01T10:05:46.657Z,94.80
2018-05-01T10:08:13.418Z,95.50
2018-05-01T10:10:39.641Z,95.50
2018-05-01T10:13:05.658Z,95.50
2018-05-01T10:15:31.661Z,95.50
2018-05-01T10:17:58.502Z,95.00
2018-05-01T10:20:24.624Z,95.00
2018-05-01T10:22:50.647Z,95.30
2018-05-01T10:25:16.704Z,95.20
2018-05-01T10:27:43.453Z,95.60
2018-05-01T10:30:09.463Z,95.60
2018-05-01T10:32:35.762Z,95.90
2018-05-01T10:35:01.796Z,96.10
2018-05-01T10:37:29.317Z,95.20
2018-05-01T10:39:55.297Z,95.30
2018-05-01T10:42:21.320Z,95.70
2018-05-01T10:44:48.165Z,96.10
2018-05-01T10:47:14.465Z,96.10
2018-05-01T10:49:40.466Z,96.00
2018-05-01T10:52:09.001Z,95.80
2018-05-01T10:54:38.767Z,96.70
2018-05-01T10:57:05.976Z,95.50
2018-05-01T10:59:32.025Z,95.60
2018-05-01T11:01:58.038Z,95.30
2018-05-01T11:04:24.050Z,96.50
2018-05-01T11:06:50.041Z,96.50
2018-05-01T11:09:16.113Z,96.70
2018-05-01T11:11:42.145Z,96.60
2018-05-01T11:14:08.138Z,97.10
2018-05-01T11:16:34.151Z,96.90
2018-05-01T11:19:00.913Z,97.20
2018-05-01T11:21:26.894Z,97.20
2018-05-01T11:23:52.872Z,97.40
2018-05-01T11:26:19.033Z,96.30
2018-05-01T11:28:45.704Z,97.10
2018-05-01T11:31:11.713Z,97.10
2018-05-01T11:33:37.804Z,96.80
2018-05-01T11:36:04.491Z,96.90
2018-05-01T11:38:31.253Z,97.30
2018-05-01T11:40:57.255Z,97.30
2018-05-01T11:43:23.266Z,97.30
2018-05-01T11:45:49.258Z,97.00
2018-05-01T11:48:15.275Z,96.90
2018-05-01T11:50:41.372Z,97.00
2018-05-01T11:53:08.359Z,97.00
2018-05-01T11:55:35.099Z,97.40
2018-05-01T11:58:01.269Z,97.30
2018-05-01T12:00:27.991Z,96.70
2018-05-01T12:02:53.951Z,96.70
2018-05-01T12:05:19.961Z,96.30
2018-05-01T12:07:46.678Z,96.70
2018-05-01T12:10:12.757Z,96.70
2018-05-01T12:12:38.821Z,97.10
2018-05-01T12:15:04.862Z,97.20
2018-05-01T12:17:31.596Z,96.90
2018-05-01T12:19:57.776Z,96.90
2018-05-01T12:22:23.800Z,97.20
2018-05-01T12:24:49.789Z,96.70
2018-05-01T12:27:16.540Z,96.90
2018-05-01T12:29:42.479Z,96.10
2018-05-01T12:32:08.489Z,96.40
2018-05-01T12:34:34.508Z,97.20
2018-05-01T12:37:00.594Z,97.20
2018-05-01T12:39:26.501Z,97.20
2018-05-01T12:41:52.777Z,96.70
2018-05-01T12:44:18.878Z,97.00
2018-05-01T12:46:44.856Z,96.70
2018-05-01T12:49:11.495Z,96.40
2018-05-01T12:51:37.703Z,96.70
2018-05-01T12:54:03.978Z,96.30
2018-05-01T12:56:30.097Z,96.10
2018-05-01T12:58:56.081Z,95.30
2018-05-01T13:01:22.391Z,95.50
2018-05-01T13:03:49.142Z,95.80
2018-05-01T13:06:16.060Z,95.20
2018-05-01T13:08:42.824Z,95.00
2018-05-01T13:11:09.569Z,96.00
2018-05-01T13:13:36.285Z,96.20
2018-05-01T13:16:02.285Z,96.20
2018-05-01T13:18:28.509Z,96.20
2018-05-01T13:20:54.506Z,95.40
2018-05-01T13:23:20.499Z,94.80
2018-05-01T13:25:47.254Z,93.80
2018-05-01T13:28:13.261Z,93.80
2018-05-01T13:30:40.023Z,93.10
2018-05-01T13:33:05.997Z,93.10
2018-05-01T13:35:32.817Z,94.30
2018-05-01T13:37:58.837Z,94.40
2018-05-01T13:40:24.927Z,92.90
2018-05-01T13:42:50.904Z,92.60
2018-05-01T13:45:16.976Z,92.80
2018-05-01T13:47:42.991Z,92.60
2018-05-01T13:50:09.729Z,91.80
2018-05-01T13:52:36.441Z,92.10
2018-05-01T13:55:02.432Z,92.10
2018-05-01T13:57:28.482Z,91.70
2018-05-01T13:59:54.506Z,92.30
2018-05-01T14:02:20.491Z,92.80
2018-05-01T14:04:46.501Z,93.80
2018-05-01T14:07:12.486Z,93.40
2018-05-01T14:09:38.521Z,93.70
2018-05-01T14:12:04.545Z,92.50
2018-05-01T14:14:31.304Z,92.80
2018-05-01T14:16:58.025Z,93.60
2018-05-01T14:19:24.023Z,93.60
2018-05-01T14:21:49.998Z,94.10
2018-05-01T14:24:15.977Z,93.40
2018-05-01T14:26:41.973Z,93.10
2018-05-01T14:29:07.972Z,93.30
2018-05-01T14:31:33.986Z,92.60
2018-05-01T14:34:00.721Z,93.30
2018-05-01T14:36:26.785Z,93.30
2018-05-01T14:38:52.770Z,93.80
2018-05-01T14:41:19.505Z,93.10
2018-05-01T14:43:46.397Z,93.40
2018-05-01T14:46:12.383Z,93.40
2018-05-01T14:48:38.377Z,93.40
2018-05-01T14:51:04.366Z,93.90
2018-05-01T14:53:30.361Z,94.00
2018-05-01T14:55:56.352Z,93.70
2018-05-01T14:58:22.356Z,93.80
2018-05-01T15:00:48.444Z,94.30
2018-05-01T15:03:14.482Z,94.20
2018-05-01T15:05:40.474Z,94.50
2018-05-01T15:08:06.457Z,94.50
2018-05-01T15:10:32.441Z,94.80
2018-05-01T15:12:58.433Z,95.30
2018-05-01T15:15:25.195Z,95.00
2018-05-01T15:17:51.178Z,95.00
2018-05-01T15:20:17.169Z,94.60
2018-05-01T15:22:43.236Z,95.20
2018-05-01T15:25:09.169Z,95.50
2018-05-01T15:27:35.927Z,94.80
2018-05-01T15:30:02.469Z,94.80
2018-05-01T15:32:28.451Z,94.90
2018-05-01T15:34:54.430Z,95.60
2018-05-01T15:37:20.425Z,95.30
2018-05-01T15:39:47.126Z,95.90
2018-05-01T15:42:13.108Z,96.00
2018-05-01T15:44:40.414Z,95.70
2018-05-01T15:47:06.524Z,95.70
2018-05-01T15:49:32.497Z,96.40
2018-05-01T15:51:58.489Z,95.60
2018-05-01T15:54:24.533Z,96.60
2018-05-01T15:56:50.594Z,96.00
2018-05-01T15:59:16.574Z,95.90
2018-05-01T16:01:43.297Z,96.10
2018-05-01T16:04:09.273Z,96.10
2018-05-01T16:06:35.320Z,95.80
2018-05-01T16:09:01.285Z,95.80
2018-05-01T16:11:28.172Z,96.20
2018-05-01T16:13:54.484Z,96.20
2018-05-01T16:16:20.577Z,96.20
2018-05-01T16:18:46.630Z,96.40
2018-05-01T16:21:12.637Z,96.40
2018-05-01T16:23:38.625Z,96.40
2018-05-01T16:26:04.630Z,96.90
2018-05-01T16:28:30.618Z,96.90
2018-05-01T16:30:56.653Z,96.90
2018-05-01T16:33:22.633Z,97.00
2018-05-01T16:35:49.424Z,97.00
2018-05-01T16:38:16.101Z,96.50
2018-05-01T16:40:42.100Z,96.60
2018-05-01T16:43:08.090Z,96.70
2018-05-01T16:45:34.064Z,96.50
2018-05-01T16:48:00.049Z,95.80
2018-05-01T16:50:26.031Z,95.80
2018-05-01T16:52:52.803Z,96.40
2018-05-01T16:55:18.792Z,96.40
2018-05-01T16:57:44.856Z,96.10
2018-05-01T17:00:12.141Z,95.70
2018-05-01T17:02:38.358Z,96.00
2018-05-01T17:05:04.445Z,96.00
2018-05-01T17:07:31.308Z,97.00
2018-05-01T17:09:57.729Z,97.00
2018-05-01T17:12:23.802Z,96.70
2018-05-01T17:14:49.780Z,96.80
2018-05-01T17:17:15.772Z,97.10
2018-05-01T17:19:41.778Z,96.70
2018-05-01T17:22:07.807Z,96.70
2018-05-01T17:24:33.809Z,97.00
2018-05-01T17:26:59.899Z,96.80
2018-05-01T17:29:26.010Z,96.90
2018-05-01T17:31:52.351Z,96.50
2018-05-01T17:34:18.587Z,96.70
2018-05-01T17:36:45.862Z,96.30
2018-05-01T17:39:12.750Z,96.20
2018-05-01T17:41:39.628Z,96.10
2018-05-01T17:44:06.556Z,96.00
2018-05-01T17:46:33.382Z,96.20
2018-05-01T17:48:59.389Z,96.20
2018-05-01T17:51:25.707Z,95.90
2018-05-01T17:53:51.845Z,95.80
2018-05-01T17:56:18.606Z,95.80
2018-05-01T17:58:44.993Z,95.80
2018-05-01T18:01:11.076Z,95.10
2018-05-01T18:03:37.950Z,94.40
2018-05-01T18:06:04.117Z,94.40
2018-05-01T18:08:30.995Z,94.80
2018-05-01T18:10:57.001Z,94.80
2018-05-01T18:13:23.141Z,94.90
2018-05-01T18:15:49.205Z,94.70
2018-05-01T18:18:15.201Z,94.80
2018-05-01T18:20:41.913Z,94.40
2018-05-01T18:23:07.916Z,94.50
2018-05-01T18:25:33.907Z,94.60
2018-05-01T18:27:59.941Z,94.70
2018-05-01T18:30:26.281Z,94.40
2018-05-01T18:32:52.333Z,93.90
2018-05-01T18:35:19.110Z,93.50
2018-05-01T18:37:45.309Z,93.50
2018-05-01T18:40:12.045Z,93.50
2018-05-01T18:42:38.054Z,93.50
2018-05-01T18:45:04.037Z,93.90
2018-05-01T18:47:30.044Z,93.60
2018-05-01T18:49:56.765Z,93.40
2018-05-01T18:52:22.766Z,93.40
2018-05-01T18:54:48.745Z,93.40
2018-05-01T18:57:14.765Z,92.90
2018-05-01T18:59:40.789Z,92.80
2018-05-01T19:02:06.793Z,92.60
2018-05-01T19:04:33.542Z,92.50
2018-05-01T19:07:00.261Z,92.10
2018-05-01T19:09:26.310Z,92.00
2018-05-01T19:11:52.388Z,92.50
2018-05-01T19:14:18.379Z,92.40
2018-05-01T19:16:44.553Z,91.80
2018-05-01T19:19:11.342Z,92.30
2018-05-01T19:21:37.344Z,92.30
2018-05-01T19:24:04.262Z,92.50
2018-05-01T19:26:30.278Z,92.50
2018-05-01T19:28:57.193Z,92.20
2018-05-01T19:31:23.176Z,92.20
2018-05-01T19:33:49.933Z,92.40
2018-05-01T19:36:16.634Z,92.10
2018-05-01T19:38:42.680Z,92.00
2018-05-01T19:41:08.643Z,92.00
2018-05-01T19:43:34.630Z,91.80
2018-05-01T19:46:00.613Z,92.20
2018-05-01T19:48:26.585Z,91.90
2018-05-01T19:50:53.384Z,92.20
2018-05-01T19:53:20.040Z,92.30
2018-05-01T19:55:46.086Z,92.30
2018-05-01T19:58:12.140Z,92.30
2018-05-01T20:00:38.111Z,92.10
2018-05-01T20:03:04.118Z,91.80
2018-05-01T20:05:30.073Z,92.00
2018-05-01T20:07:56.077Z,92.10
2018-05-01T20:10:22.078Z,92.40
2018-05-01T20:12:48.086Z,92.10
2018-05-01T20:15:14.065Z,91.90
2018-05-01T20:17:40.805Z,91.60
2018-05-01T20:20:07.550Z,91.80
2018-05-01T20:22:34.290Z,91.60
2018-05-01T20:25:01.001Z,91.40
2018-05-01T20:27:27.005Z,91.40
2018-05-01T20:29:52.976Z,91.60
2018-05-01T20:32:19.690Z,91.50
2018-05-01T20:34:45.678Z,91.50
2018-05-01T20:37:11.685Z,91.40
2018-05-01T20:39:38.037Z,91.20
2018-05-01T20:42:04.049Z,91.10
2018-05-01T20:44:30.114Z,91.50
2018-05-01T20:46:56.061Z,91.60
2018-05-01T20:49:22.815Z,91.60
2018-05-01T20:51:48.854Z,91.60
2018-05-01T20:54:14.852Z,91.40
2018-05-01T20:56:40.824Z,91.10
2018-05-01T20:59:06.825Z,90.90
2018-05-01T21:01:32.782Z,90.80
2018-05-01T21:03:58.793Z,90.70
2018-05-01T21:06:24.797Z,90.30
2018-05-01T21:08:50.817Z,90.30
2018-05-01T21:11:16.813Z,90.20
2018-05-01T21:13:42.821Z,90.00
2018-05-01T21:16:08.793Z,90.00
2018-05-01T21:18:34.787Z,90.00
2018-05-01T21:21:01.522Z,89.10
2018-05-01T21:23:28.345Z,89.60
2018-05-01T21:25:54.351Z,89.60
2018-05-01T21:28:21.435Z,89.10
2018-05-01T21:30:48.152Z,88.90
2018-05-01T21:33:14.156Z,89.00
2018-05-01T21:35:40.162Z,89.30
2018-05-01T21:38:06.166Z,89.20
2018-05-01T21:40:32.157Z,88.40
2018-05-01T21:42:58.197Z,89.00
2018-05-01T21:45:24.230Z,88.80
2018-05-01T21:47:50.214Z,88.20
2018-05-01T21:50:16.213Z,89.30
2018-05-01T21:52:42.393Z,89.90
2018-05-01T21:55:09.129Z,89.30
2018-05-01T21:57:35.870Z,89.70
2018-05-01T22:00:02.629Z,89.50
2018-05-01T22:02:29.375Z,89.00
2018-05-01T22:04:55.377Z,89.00
2018-05-01T22:07:21.337Z,89.10
2018-05-01T22:09:47.377Z,89.50
2018-05-01T22:12:13.386Z,89.80
2018-05-01T22:14:39.405Z,89.90
2018-05-01T22:17:05.402Z,89.80
2018-05-01T22:19:31.410Z,89.50
2018-05-01T22:21:58.137Z,89.70
2018-05-01T22:24:24.148Z,89.80
2018-05-01T22:26:50.133Z,89.90
2018-05-01T22:29:16.126Z,89.80
2018-05-01T22:31:42.850Z,90.00
2018-05-01T22:34:09.607Z,90.10
2018-05-01T22:36:35.614Z,90.10
2018-05-01T22:39:01.630Z,89.80
2018-05-01T22:41:27.612Z,89.60
2018-05-01T22:43:53.606Z,90.60
2018-05-01T22:46:19.597Z,90.50
2018-05-01T22:48:45.614Z,90.40
2018-05-01T22:51:11.593Z,90.60
2018-05-01T22:53:37.585Z,91.00
2018-05-01T22:56:04.345Z,90.70
2018-05-01T22:58:30.445Z,90.80
2018-05-01T23:00:57.186Z,91.00
2018-05-01T23:03:23.177Z,91.00
2018-05-01T23:05:49.198Z,90.90
2018-05-01T23:08:15.194Z,90.70
2018-05-01T23:10:41.209Z,90.60
2018-05-01T23:13:07.197Z,90.20
2018-05-01T23:15:33.205Z,90.20
2018-05-01T23:17:59.265Z,90.00
2018-05-01T23:20:26.001Z,89.20
2018-05-01T23:22:51.970Z,89.20
2018-05-01T23:25:17.969Z,89.70
2018-05-01T23:27:44.729Z,89.40
2018-05-01T23:30:10.736Z,89.40
2018-05-01T23:32:36.728Z,88.90
2018-05-01T23:35:03.502Z,88.40
2018-05-01T23:37:29.493Z,88.50
2018-05-01T23:39:56.233Z,88.00
2018-05-01T23:42:22.997Z,88.10
2018-05-01T23:44:49.181Z,88.30
2018-05-01T23:47:15.160Z,88.20
2018-05-01T23:49:41.174Z,88.30
2018-05-01T23:52:07.161Z,88.30
2018-05-01T23:54:33.960Z,87.80
2018-05-01T23:56:59.953Z,87.80
2018-05-01T23:59:25.949Z,87.90
